createdAt,value
2023-02-23T00:01:53.588Z,16.65
2023-02-23T00:04:20.215Z,16.68
2023-02-23T00:06:46.959Z,16.32
2023-02-23T00:09:23.081Z,16.22
2023-02-23T00:11:55.929Z,16.56
2023-02-23T00:14:27.767Z,16.90
2023-02-23T00:16:56.942Z,16.46
2023-02-23T00:19:27.395Z,16.03
2023-02-23T00:21:54.352Z,16.12
2023-02-23T00:24:22.114Z,16.04
2023-02-23T00:26:51.336Z,15.70
2023-02-23T00:29:21.371Z,15.89
2023-02-23T00:31:50.438Z,15.72
2023-02-23T00:34:23.643Z,15.36
2023-02-23T00:36:54.461Z,15.60
2023-02-23T00:39:25.488Z,16.01
2023-02-23T00:41:52.794Z,15.83
2023-02-23T00:44:21.737Z,15.28
2023-02-23T00:46:51.290Z,15.59
2023-02-23T00:49:20.260Z,15.58
2023-02-23T00:51:47.197Z,15.20
2023-02-23T00:54:15.589Z,15.53
2023-02-23T00:56:42.401Z,15.67
2023-02-23T00:59:10.257Z,14.67
2023-02-23T01:01:38.431Z,14.89
2023-02-23T01:04:06.184Z,15.39
2023-02-23T01:06:32.972Z,15.27
2023-02-23T01:08:59.920Z,15.10
2023-02-23T01:11:28.833Z,15.35
2023-02-23T01:13:57.714Z,15.36
2023-02-23T01:16:29.969Z,15.43
2023-02-23T01:18:59.221Z,15.02
2023-02-23T01:21:27.779Z,15.35
2023-02-23T01:23:55.442Z,15.63
2023-02-23T01:26:28.031Z,15.00
2023-02-23T01:28:57.989Z,14.63
2023-02-23T01:31:26.456Z,15.16
2023-02-23T01:33:58.108Z,15.33
2023-02-23T01:36:25.665Z,15.53
2023-02-23T01:38:56.816Z,15.18
2023-02-23T01:41:24.680Z,15.00
2023-02-23T01:44:04.065Z,14.49
2023-02-23T01:46:35.960Z,15.17
2023-02-23T01:49:04.329Z,15.12
2023-02-23T01:51:36.734Z,15.38
2023-02-23T01:54:14.369Z,14.44
2023-02-23T01:56:44.984Z,15.06
2023-02-23T01:59:15.438Z,14.78
2023-02-23T02:01:43.715Z,14.86
2023-02-23T02:04:16.661Z,15.09
2023-02-23T02:06:46.947Z,14.66
2023-02-23T02:09:17.545Z,14.44
2023-02-23T02:11:46.387Z,13.95
2023-02-23T02:14:18.144Z,14.23
2023-02-23T02:17:02.307Z,14.85
2023-02-23T02:19:55.611Z,14.93
2023-02-23T02:22:45.044Z,14.21
2023-02-23T02:25:56.644Z,14.54
2023-02-23T02:28:35.508Z,13.81
2023-02-23T02:31:36.256Z,14.90
2023-02-23T02:34:24.946Z,14.03
2023-02-23T02:37:28.938Z,13.62
2023-02-23T02:40:24.985Z,14.05
2023-02-23T02:43:11.134Z,14.28
2023-02-23T02:45:57.633Z,14.43
2023-02-23T02:48:31.094Z,13.90
2023-02-23T02:51:28.610Z,13.92
2023-02-23T02:54:39.802Z,13.98
2023-02-23T02:57:08.293Z,14.03
2023-02-23T03:00:04.753Z,14.33
2023-02-23T03:02:53.121Z,13.25
2023-02-23T03:05:44.611Z,12.66
2023-02-23T03:08:43.538Z,13.32
2023-02-23T03:11:31.442Z,13.69
2023-02-23T03:14:35.389Z,13.49
2023-02-23T03:17:38.644Z,13.07
2023-02-23T03:20:52.038Z,13.40
2023-02-23T03:23:40.027Z,13.21
2023-02-23T03:26:30.452Z,13.47
2023-02-23T03:29:42.821Z,13.49
2023-02-23T03:32:59.756Z,12.88
2023-02-23T03:36:01.435Z,13.07
2023-02-23T03:38:57.416Z,13.17
2023-02-23T03:41:46.894Z,13.02
2023-02-23T03:44:37.904Z,13.00
2023-02-23T03:47:27.026Z,13.07
2023-02-23T03:50:13.925Z,13.14
2023-02-23T03:53:08.029Z,13.22
2023-02-23T03:55:59.001Z,12.84
2023-02-23T03:58:54.104Z,12.62
2023-02-23T04:01:42.586Z,13.28
2023-02-23T04:04:29.861Z,12.41
2023-02-23T04:07:19.168Z,13.20
2023-02-23T04:10:04.681Z,13.09
2023-02-23T04:12:58.811Z,13.55
2023-02-23T04:15:29.773Z,12.16
2023-02-23T04:17:56.560Z,12.60
2023-02-23T04:20:23.629Z,12.20
2023-02-23T04:22:50.275Z,12.48
2023-02-23T04:25:22.813Z,12.62
2023-02-23T04:27:50.600Z,12.58
2023-02-23T04:30:18.062Z,12.15
2023-02-23T04:32:46.015Z,12.26
2023-02-23T04:35:13.656Z,12.41
2023-02-23T04:37:40.283Z,12.59
2023-02-23T04:40:07.818Z,12.71
2023-02-23T04:42:34.436Z,11.98
2023-02-23T04:45:01.110Z,12.25
2023-02-23T04:47:27.712Z,12.64
2023-02-23T04:49:54.333Z,12.25
2023-02-23T04:52:20.938Z,12.02
2023-02-23T04:54:48.139Z,12.23
2023-02-23T04:57:15.017Z,12.26
2023-02-23T04:59:41.699Z,11.74
2023-02-23T05:02:08.620Z,12.16
2023-02-23T05:04:35.376Z,12.45
2023-02-23T05:07:03.686Z,12.23
2023-02-23T05:09:31.484Z,12.12
2023-02-23T05:11:58.063Z,12.19
2023-02-23T05:14:24.870Z,11.75
2023-02-23T05:16:51.497Z,12.09
2023-02-23T05:19:18.310Z,12.68
2023-02-23T05:21:45.071Z,11.80
2023-02-23T05:24:11.673Z,11.75
2023-02-23T05:26:38.244Z,12.07
2023-02-23T05:29:06.598Z,12.01
2023-02-23T05:31:33.935Z,11.65
2023-02-23T05:34:00.869Z,12.04
2023-02-23T05:36:27.949Z,11.56
2023-02-23T05:38:55.192Z,11.85
2023-02-23T05:41:23.690Z,11.96
2023-02-23T05:43:52.654Z,11.47
2023-02-23T05:46:27.058Z,11.69
2023-02-23T05:48:59.229Z,11.17
2023-02-23T05:51:27.140Z,11.72
2023-02-23T05:53:53.908Z,11.47
2023-02-23T05:56:21.109Z,11.53
2023-02-23T05:58:49.297Z,11.99
2023-02-23T06:01:17.784Z,11.49
2023-02-23T06:03:45.619Z,11.55
2023-02-23T06:06:12.614Z,11.98
2023-02-23T06:08:39.519Z,11.47
2023-02-23T06:11:06.556Z,11.50
2023-02-23T06:13:33.156Z,11.88
2023-02-23T06:16:00.003Z,11.51
2023-02-23T06:18:27.685Z,10.86
2023-02-23T06:20:54.393Z,11.27
2023-02-23T06:23:21.185Z,11.52
2023-02-23T06:25:47.964Z,11.63
2023-02-23T06:28:15.280Z,11.39
2023-02-23T06:30:42.442Z,11.18
2023-02-23T06:33:09.077Z,11.13
2023-02-23T06:35:35.683Z,11.23
2023-02-23T06:38:02.443Z,10.44
2023-02-23T06:40:29.228Z,10.88
2023-02-23T06:42:55.827Z,11.27
2023-02-23T06:45:22.880Z,10.91
2023-02-23T06:47:49.561Z,10.93
2023-02-23T06:50:16.658Z,10.80
2023-02-23T06:52:43.271Z,10.38
2023-02-23T06:55:10.166Z,11.07
2023-02-23T06:57:36.861Z,11.00
2023-02-23T07:00:04.636Z,10.35
2023-02-23T07:02:31.825Z,10.83
2023-02-23T07:04:58.847Z,10.72
2023-02-23T07:07:25.545Z,10.98
2023-02-23T07:09:52.147Z,11.48
2023-02-23T07:12:19.022Z,10.78
2023-02-23T07:14:45.605Z,10.30
2023-02-23T07:17:12.724Z,10.78
2023-02-23T07:19:39.465Z,12.56
2023-02-23T07:22:06.121Z,12.93
2023-02-23T07:24:32.739Z,13.31
2023-02-23T07:26:59.396Z,12.61
2023-02-23T07:29:28.154Z,13.59
2023-02-23T07:31:55.238Z,13.03
2023-02-23T07:34:21.990Z,14.11
2023-02-23T07:36:48.702Z,14.06
2023-02-23T07:39:15.566Z,13.91
2023-02-23T07:41:42.239Z,14.81
2023-02-23T07:44:09.007Z,15.25
2023-02-23T07:46:35.640Z,15.71
2023-02-23T07:49:03.029Z,15.89
2023-02-23T07:51:29.744Z,15.56
2023-02-23T07:53:56.494Z,15.86
2023-02-23T07:56:23.173Z,16.45
2023-02-23T07:58:49.798Z,16.42
2023-02-23T08:01:16.845Z,17.07
2023-02-23T08:03:49.396Z,17.14
2023-02-23T08:06:18.138Z,16.21
2023-02-23T08:08:44.757Z,14.83
2023-02-23T08:11:11.946Z,14.29
2023-02-23T08:13:39.356Z,14.02
2023-02-23T08:16:06.237Z,13.74
2023-02-23T08:18:33.091Z,13.62
2023-02-23T08:21:04.370Z,13.69
2023-02-23T08:23:33.336Z,12.75
2023-02-23T08:26:01.703Z,12.89
2023-02-23T08:28:29.783Z,12.80
2023-02-23T08:30:56.566Z,12.49
2023-02-23T08:33:23.598Z,12.64
2023-02-23T08:35:50.172Z,12.18
2023-02-23T08:38:18.266Z,12.52
2023-02-23T08:40:44.993Z,12.89
2023-02-23T08:43:11.619Z,12.52
2023-02-23T08:45:39.540Z,12.52
2023-02-23T08:48:07.432Z,12.35
2023-02-23T08:50:34.086Z,12.03
2023-02-23T08:53:00.736Z,11.77
2023-02-23T08:55:27.602Z,11.71
2023-02-23T08:57:54.248Z,11.99
2023-02-23T09:00:21.444Z,11.96
2023-02-23T09:02:48.356Z,11.50
2023-02-23T09:05:15.467Z,11.78
2023-02-23T09:07:45.274Z,12.10
2023-02-23T09:10:19.844Z,12.23
2023-02-23T09:12:46.555Z,11.93
2023-02-23T09:15:13.204Z,11.70
2023-02-23T09:17:41.361Z,12.27
2023-02-23T09:20:09.375Z,11.88
2023-02-23T09:22:37.021Z,12.05
2023-02-23T09:25:04.904Z,11.60
2023-02-23T09:27:31.695Z,11.50
2023-02-23T09:29:58.371Z,11.73
2023-02-23T09:32:25.065Z,11.71
2023-02-23T09:34:52.489Z,11.63
2023-02-23T09:37:19.347Z,11.53
2023-02-23T09:39:46.083Z,11.69
2023-02-23T09:42:33.120Z,12.05
2023-02-23T09:45:11.715Z,12.08
2023-02-23T09:48:08.195Z,12.33
2023-02-23T09:50:38.538Z,12.29
2023-02-23T09:53:17.106Z,12.93
2023-02-23T09:55:44.044Z,12.70
2023-02-23T09:58:29.061Z,13.13
2023-02-23T10:01:11.716Z,13.56
2023-02-23T10:03:42.689Z,12.78
2023-02-23T10:06:15.312Z,13.52
2023-02-23T10:09:06.666Z,13.22
2023-02-23T10:11:57.983Z,13.06
2023-02-23T10:14:57.657Z,13.07
2023-02-23T10:17:24.197Z,12.69
2023-02-23T10:20:01.071Z,12.92
2023-02-23T10:22:29.124Z,13.02
2023-02-23T10:25:30.887Z,14.16
2023-02-23T10:28:00.481Z,13.37
2023-02-23T10:30:32.764Z,13.04
2023-02-23T10:33:30.991Z,12.47
2023-02-23T10:36:13.625Z,12.59
2023-02-23T10:38:40.983Z,13.21
2023-02-23T10:41:10.250Z,12.50
2023-02-23T10:43:37.241Z,12.25
2023-02-23T10:46:06.637Z,12.37
2023-02-23T10:48:41.257Z,12.37
2023-02-23T10:51:19.672Z,11.68
2023-02-23T10:53:46.441Z,11.94
2023-02-23T10:56:16.949Z,12.29
2023-02-23T10:58:50.031Z,11.72
2023-02-23T11:01:36.338Z,12.56
2023-02-23T11:04:25.300Z,12.05
2023-02-23T11:07:17.900Z,11.94
2023-02-23T11:09:47.786Z,12.06
2023-02-23T11:12:26.292Z,11.25
2023-02-23T11:14:55.562Z,11.75
2023-02-23T11:17:37.491Z,11.45
2023-02-23T11:20:25.752Z,11.42
2023-02-23T11:22:52.691Z,11.91
2023-02-23T11:25:29.510Z,11.64
2023-02-23T11:27:57.662Z,11.20
2023-02-23T11:30:34.326Z,10.97
2023-02-23T11:33:10.874Z,10.71
2023-02-23T11:35:38.993Z,10.50
2023-02-23T11:38:25.534Z,10.87
2023-02-23T11:41:11.961Z,10.75
2023-02-23T11:43:38.585Z,11.17
2023-02-23T11:46:05.562Z,11.02
2023-02-23T11:48:36.634Z,10.72
2023-02-23T11:51:05.045Z,11.07
2023-02-23T11:53:36.548Z,11.42
2023-02-23T11:56:12.449Z,11.31
2023-02-23T11:58:44.698Z,10.53
2023-02-23T12:01:16.835Z,11.40
2023-02-23T12:03:48.268Z,11.15
2023-02-23T12:06:36.512Z,10.31
2023-02-23T12:09:23.698Z,10.83
2023-02-23T12:12:02.583Z,10.36
2023-02-23T12:14:52.034Z,10.25
2023-02-23T12:17:27.014Z,10.69
2023-02-23T12:20:05.239Z,10.63
2023-02-23T12:22:43.607Z,11.14
2023-02-23T12:25:40.388Z,10.80
2023-02-23T12:28:20.419Z,10.96
2023-02-23T12:30:50.526Z,10.59
2023-02-23T12:33:30.104Z,11.35
2023-02-23T12:36:04.350Z,11.65
2023-02-23T12:39:04.575Z,11.06
2023-02-23T12:41:42.416Z,11.22
2023-02-23T12:44:43.014Z,11.52
2023-02-23T12:47:41.611Z,11.50
2023-02-23T12:50:25.893Z,11.70
2023-02-23T21:03:34.994Z,16.50
2023-02-23T21:06:01.703Z,16.71
2023-02-23T21:08:28.910Z,16.24
2023-02-23T21:10:55.650Z,16.54
2023-02-23T21:13:23.161Z,16.02
2023-02-23T21:16:01.688Z,16.09
2023-02-23T21:18:29.512Z,15.70
2023-02-23T21:20:57.270Z,15.08
2023-02-23T21:23:25.341Z,15.29
2023-02-23T21:25:53.960Z,15.14
2023-02-23T21:28:21.017Z,15.11
2023-02-23T21:30:47.943Z,15.11
2023-02-23T21:33:14.866Z,15.01
2023-02-23T21:35:41.455Z,15.31
2023-02-23T21:38:08.322Z,15.01
2023-02-23T21:40:35.672Z,14.58
2023-02-23T21:43:06.605Z,14.63
2023-02-23T21:45:33.347Z,14.35
2023-02-23T21:47:59.969Z,14.14
2023-02-23T21:50:26.959Z,14.51
2023-02-23T21:52:57.748Z,14.59
2023-02-23T21:55:24.530Z,13.77
2023-02-23T21:57:51.925Z,14.03
2023-02-23T22:00:19.060Z,13.94
2023-02-23T22:02:46.414Z,14.10
2023-02-23T22:05:15.086Z,14.26
2023-02-23T22:07:50.941Z,13.89
2023-02-23T22:10:20.208Z,13.60
2023-02-23T22:12:47.041Z,13.86
2023-02-23T22:15:15.785Z,13.38
2023-02-23T22:17:43.280Z,13.12
2023-02-23T22:20:10.713Z,13.43
2023-02-23T22:22:37.346Z,13.54
2023-02-23T22:25:05.435Z,13.32
2023-02-23T22:27:32.790Z,13.37
2023-02-23T22:30:01.340Z,13.08
2023-02-23T22:32:32.679Z,13.80
2023-02-23T22:35:00.672Z,12.57
2023-02-23T22:37:32.107Z,13.27
2023-02-23T22:40:15.114Z,13.05
2023-02-23T22:42:43.394Z,13.09
2023-02-23T22:45:11.109Z,12.88
2023-02-23T22:47:38.872Z,12.51
2023-02-23T22:50:06.840Z,12.22
2023-02-23T22:52:34.707Z,12.49
2023-02-23T22:55:01.598Z,11.75
2023-02-23T22:57:28.900Z,12.25
2023-02-23T23:00:00.415Z,12.06
2023-02-23T23:02:32.084Z,11.70
2023-02-23T23:04:59.737Z,12.07
2023-02-23T23:07:26.439Z,12.49
2023-02-23T23:09:54.329Z,12.00
2023-02-23T23:12:20.985Z,11.90
2023-02-23T23:14:47.658Z,11.76
2023-02-23T23:17:15.252Z,11.16
2023-02-23T23:19:42.042Z,11.28
2023-02-23T23:22:14.251Z,11.13
2023-02-23T23:24:45.744Z,11.18
2023-02-23T23:27:14.586Z,10.74
2023-02-23T23:29:46.461Z,10.88
2023-02-23T23:32:18.596Z,10.71
2023-02-23T23:34:48.047Z,10.61
2023-02-23T23:37:17.324Z,10.76
2023-02-23T23:39:44.260Z,10.49
2023-02-23T23:42:12.036Z,9.99
2023-02-23T23:44:39.056Z,10.22
2023-02-23T23:47:05.732Z,10.59
2023-02-23T23:49:39.781Z,10.59
2023-02-23T23:52:06.536Z,10.39
2023-02-23T23:54:39.444Z,10.09
2023-02-23T23:57:07.491Z,10.38
2023-02-23T23:59:35.322Z,10.17
